sensor_id;sensor_type;location;lat;lon;timestamp;P1;durP1;ratioP1;P2;durP2;ratioP2
16634;SDS011;8431;52.458;9.998;2023-02-04T00:00:15;22.95;;;3.75;;
16634;SDS011;8431;52.458;9.998;2023-02-04T00:02:43;17.90;;;3.63;;
16634;SDS011;8431;52.458;9.998;2023-02-04T00:05:10;16.42;;;3.15;;
16634;SDS011;8431;52.458;9.998;2023-02-04T00:07:38;17.08;;;3.55;;
16634;SDS011;8431;52.458;9.998;2023-02-04T00:10:05;9.52;;;2.75;;
16634;SDS011;8431;52.458;9.998;2023-02-04T00:12:33;18.52;;;3.08;;
16634;SDS011;8431;52.458;9.998;2023-02-04T00:15:03;13.38;;;2.70;;
16634;SDS011;8431;52.458;9.998;2023-02-04T00:17:31;14.57;;;3.08;;
16634;SDS011;8431;52.458;9.998;2023-02-04T00:19:58;11.25;;;3.30;;
16634;SDS011;8431;52.458;9.998;2023-02-04T00:22:25;7.78;;;1.83;;
16634;SDS011;8431;52.458;9.998;2023-02-04T00:24:53;6.45;;;2.08;;
16634;SDS011;8431;52.458;9.998;2023-02-04T00:29:51;6.47;;;1.77;;
16634;SDS011;8431;52.458;9.998;2023-02-04T00:32:19;4.15;;;1.38;;
16634;SDS011;8431;52.458;9.998;2023-02-04T00:34:46;6.35;;;1.80;;
16634;SDS011;8431;52.458;9.998;2023-02-04T00:37:13;4.57;;;1.25;;
16634;SDS011;8431;52.458;9.998;2023-02-04T00:39:42;5.45;;;1.20;;
16634;SDS011;8431;52.458;9.998;2023-02-04T00:42:09;3.63;;;1.33;;
16634;SDS011;8431;52.458;9.998;2023-02-04T00:44:36;3.83;;;1.02;;
16634;SDS011;8431;52.458;9.998;2023-02-04T00:47:03;0.85;;;0.70;;
16634;SDS011;8431;52.458;9.998;2023-02-04T00:49:32;3.60;;;0.88;;
16634;SDS011;8431;52.458;9.998;2023-02-04T00:51:59;2.83;;;0.93;;
16634;SDS011;8431;52.458;9.998;2023-02-04T00:54:27;1.83;;;0.93;;
16634;SDS011;8431;52.458;9.998;2023-02-04T00:56:54;4.15;;;0.90;;
16634;SDS011;8431;52.458;9.998;2023-02-04T00:59:21;3.22;;;0.63;;
16634;SDS011;8431;52.458;9.998;2023-02-04T01:01:48;3.05;;;1.00;;
16634;SDS011;8431;52.458;9.998;2023-02-04T01:04:15;3.80;;;0.85;;
16634;SDS011;8431;52.458;9.998;2023-02-04T01:06:44;4.88;;;2.17;;
16634;SDS011;8431;52.458;9.998;2023-02-04T01:09:11;3.70;;;1.15;;
16634;SDS011;8431;52.458;9.998;2023-02-04T01:11:38;4.30;;;0.85;;
16634;SDS011;8431;52.458;9.998;2023-02-04T01:14:05;2.33;;;1.05;;
16634;SDS011;8431;52.458;9.998;2023-02-04T01:16:32;1.73;;;0.80;;
16634;SDS011;8431;52.458;9.998;2023-02-04T01:18:59;2.50;;;0.65;;
16634;SDS011;8431;52.458;9.998;2023-02-04T01:21:26;3.38;;;0.80;;
16634;SDS011;8431;52.458;9.998;2023-02-04T01:23:55;3.50;;;1.13;;
16634;SDS011;8431;52.458;9.998;2023-02-04T01:26:22;2.15;;;0.70;;
16634;SDS011;8431;52.458;9.998;2023-02-04T01:28:49;2.22;;;0.70;;
16634;SDS011;8431;52.458;9.998;2023-02-04T01:31:16;0.98;;;0.80;;
16634;SDS011;8431;52.458;9.998;2023-02-04T01:33:43;1.25;;;1.15;;
16634;SDS011;8431;52.458;9.998;2023-02-04T01:36:10;1.30;;;0.70;;
16634;SDS011;8431;52.458;9.998;2023-02-04T01:38:37;1.20;;;0.88;;
16634;SDS011;8431;52.458;9.998;2023-02-04T01:41:05;1.35;;;0.82;;
16634;SDS011;8431;52.458;9.998;2023-02-04T01:43:32;2.50;;;0.82;;
16634;SDS011;8431;52.458;9.998;2023-02-04T01:46:00;0.65;;;0.63;;
16634;SDS011;8431;52.458;9.998;2023-02-04T01:48:27;0.88;;;0.40;;
16634;SDS011;8431;52.458;9.998;2023-02-04T01:50:56;1.17;;;0.80;;
16634;SDS011;8431;52.458;9.998;2023-02-04T01:53:28;0.98;;;0.80;;
16634;SDS011;8431;52.458;9.998;2023-02-04T01:55:56;0.85;;;0.40;;
16634;SDS011;8431;52.458;9.998;2023-02-04T01:58:25;0.60;;;0.60;;
16634;SDS011;8431;52.458;9.998;2023-02-04T02:00:53;0.38;;;0.38;;
16634;SDS011;8431;52.458;9.998;2023-02-04T02:03:20;1.75;;;0.65;;
16634;SDS011;8431;52.458;9.998;2023-02-04T02:05:47;3.63;;;0.70;;
16634;SDS011;8431;52.458;9.998;2023-02-04T02:11:01;0.82;;;0.40;;
16634;SDS011;8431;52.458;9.998;2023-02-04T02:13:30;0.75;;;0.57;;
16634;SDS011;8431;52.458;9.998;2023-02-04T02:15:57;1.55;;;0.50;;
16634;SDS011;8431;52.458;9.998;2023-02-04T02:18:24;0.80;;;0.80;;
16634;SDS011;8431;52.458;9.998;2023-02-04T02:20:51;0.88;;;0.65;;
16634;SDS011;8431;52.458;9.998;2023-02-04T02:23:19;0.60;;;0.55;;
16634;SDS011;8431;52.458;9.998;2023-02-04T02:25:52;1.90;;;0.70;;
16634;SDS011;8431;52.458;9.998;2023-02-04T02:28:20;0.82;;;0.80;;
16634;SDS011;8431;52.458;9.998;2023-02-04T02:30:48;0.60;;;0.40;;
16634;SDS011;8431;52.458;9.998;2023-02-04T02:33:16;5.30;;;0.70;;
16634;SDS011;8431;52.458;9.998;2023-02-04T02:35:45;0.95;;;0.60;;
16634;SDS011;8431;52.458;9.998;2023-02-04T02:38:13;1.75;;;0.57;;
16634;SDS011;8431;52.458;9.998;2023-02-04T02:40:41;2.47;;;0.50;;
16634;SDS011;8431;52.458;9.998;2023-02-04T02:43:10;1.88;;;0.50;;
16634;SDS011;8431;52.458;9.998;2023-02-04T02:45:41;1.90;;;0.93;;
16634;SDS011;8431;52.458;9.998;2023-02-04T02:48:09;0.52;;;0.50;;
16634;SDS011;8431;52.458;9.998;2023-02-04T02:50:37;0.73;;;0.55;;
16634;SDS011;8431;52.458;9.998;2023-02-04T02:53:05;3.20;;;0.90;;
16634;SDS011;8431;52.458;9.998;2023-02-04T02:55:37;3.33;;;0.80;;
16634;SDS011;8431;52.458;9.998;2023-02-04T02:58:04;0.50;;;0.50;;
16634;SDS011;8431;52.458;9.998;2023-02-04T03:00:39;1.10;;;0.80;;
16634;SDS011;8431;52.458;9.998;2023-02-04T03:03:06;2.92;;;0.82;;
16634;SDS011;8431;52.458;9.998;2023-02-04T03:05:37;1.15;;;1.00;;
16634;SDS011;8431;52.458;9.998;2023-02-04T03:08:07;0.57;;;0.57;;
16634;SDS011;8431;52.458;9.998;2023-02-04T03:10:36;0.60;;;0.60;;
16634;SDS011;8431;52.458;9.998;2023-02-04T03:13:06;0.75;;;0.75;;
16634;SDS011;8431;52.458;9.998;2023-02-04T03:15:34;1.23;;;0.68;;
16634;SDS011;8431;52.458;9.998;2023-02-04T03:18:02;1.55;;;0.85;;
16634;SDS011;8431;52.458;9.998;2023-02-04T03:20:30;1.88;;;0.65;;
16634;SDS011;8431;52.458;9.998;2023-02-04T03:22:58;1.05;;;0.63;;
16634;SDS011;8431;52.458;9.998;2023-02-04T03:25:25;0.93;;;0.82;;
16634;SDS011;8431;52.458;9.998;2023-02-04T03:27:53;1.95;;;0.80;;
16634;SDS011;8431;52.458;9.998;2023-02-04T03:30:20;0.80;;;0.80;;
16634;SDS011;8431;52.458;9.998;2023-02-04T03:32:48;0.90;;;0.70;;
16634;SDS011;8431;52.458;9.998;2023-02-04T03:35:17;1.95;;;0.80;;
16634;SDS011;8431;52.458;9.998;2023-02-04T03:37:45;1.52;;;0.90;;
16634;SDS011;8431;52.458;9.998;2023-02-04T03:40:12;0.70;;;0.70;;
16634;SDS011;8431;52.458;9.998;2023-02-04T03:42:39;1.50;;;0.95;;
16634;SDS011;8431;52.458;9.998;2023-02-04T03:45:06;0.90;;;0.80;;
16634;SDS011;8431;52.458;9.998;2023-02-04T03:47:33;6.10;;;0.93;;
16634;SDS011;8431;52.458;9.998;2023-02-04T03:50:00;0.55;;;0.55;;
16634;SDS011;8431;52.458;9.998;2023-02-04T03:52:29;1.52;;;0.52;;
16634;SDS011;8431;52.458;9.998;2023-02-04T03:54:56;2.25;;;1.05;;
16634;SDS011;8431;52.458;9.998;2023-02-04T03:57:23;0.80;;;0.80;;
16634;SDS011;8431;52.458;9.998;2023-02-04T03:59:50;0.77;;;0.73;;
16634;SDS011;8431;52.458;9.998;2023-02-04T04:02:17;1.35;;;0.70;;
16634;SDS011;8431;52.458;9.998;2023-02-04T04:04:44;1.13;;;0.60;;
16634;SDS011;8431;52.458;9.998;2023-02-04T04:07:11;1.92;;;0.90;;
16634;SDS011;8431;52.458;9.998;2023-02-04T04:09:39;0.98;;;0.80;;
16634;SDS011;8431;52.458;9.998;2023-02-04T04:12:06;3.10;;;1.13;;
16634;SDS011;8431;52.458;9.998;2023-02-04T04:14:33;2.03;;;1.02;;
16634;SDS011;8431;52.458;9.998;2023-02-04T04:17:01;1.15;;;0.70;;
16634;SDS011;8431;52.458;9.998;2023-02-04T04:19:28;0.80;;;0.80;;
16634;SDS011;8431;52.458;9.998;2023-02-04T04:21:56;2.15;;;0.80;;
16634;SDS011;8431;52.458;9.998;2023-02-04T04:24:23;2.03;;;0.82;;
16634;SDS011;8431;52.458;9.998;2023-02-04T04:26:51;0.93;;;0.85;;
16634;SDS011;8431;52.458;9.998;2023-02-04T04:29:18;1.08;;;0.90;;
16634;SDS011;8431;52.458;9.998;2023-02-04T04:31:45;0.93;;;0.88;;
16634;SDS011;8431;52.458;9.998;2023-02-04T04:34:12;0.82;;;0.82;;
16634;SDS011;8431;52.458;9.998;2023-02-04T04:36:39;0.85;;;0.80;;
16634;SDS011;8431;52.458;9.998;2023-02-04T04:39:06;2.33;;;1.35;;
16634;SDS011;8431;52.458;9.998;2023-02-04T04:41:33;1.30;;;1.20;;
16634;SDS011;8431;52.458;9.998;2023-02-04T04:44:01;1.38;;;1.30;;
16634;SDS011;8431;52.458;9.998;2023-02-04T04:46:28;2.15;;;1.10;;
16634;SDS011;8431;52.458;9.998;2023-02-04T04:48:55;1.17;;;1.02;;
16634;SDS011;8431;52.458;9.998;2023-02-04T04:51:22;2.13;;;0.98;;
16634;SDS011;8431;52.458;9.998;2023-02-04T04:53:49;1.98;;;1.30;;
16634;SDS011;8431;52.458;9.998;2023-02-04T04:56:17;1.50;;;1.40;;
16634;SDS011;8431;52.458;9.998;2023-02-04T04:58:44;2.13;;;1.20;;
16634;SDS011;8431;52.458;9.998;2023-02-04T05:01:12;0.80;;;0.80;;
16634;SDS011;8431;52.458;9.998;2023-02-04T05:03:39;1.38;;;1.08;;
16634;SDS011;8431;52.458;9.998;2023-02-04T05:06:06;1.15;;;1.05;;
16634;SDS011;8431;52.458;9.998;2023-02-04T05:08:35;1.77;;;1.20;;
16634;SDS011;8431;52.458;9.998;2023-02-04T05:11:02;1.40;;;1.27;;
16634;SDS011;8431;52.458;9.998;2023-02-04T05:13:29;1.27;;;1.17;;
16634;SDS011;8431;52.458;9.998;2023-02-04T05:15:56;1.30;;;1.20;;
16634;SDS011;8431;52.458;9.998;2023-02-04T05:18:24;1.30;;;1.20;;
16634;SDS011;8431;52.458;9.998;2023-02-04T05:20:52;2.08;;;1.00;;
16634;SDS011;8431;52.458;9.998;2023-02-04T05:23:19;2.05;;;1.35;;
16634;SDS011;8431;52.458;9.998;2023-02-04T05:25:45;2.85;;;1.45;;
16634;SDS011;8431;52.458;9.998;2023-02-04T05:28:12;1.63;;;1.40;;
16634;SDS011;8431;52.458;9.998;2023-02-04T05:30:39;1.83;;;1.67;;
16634;SDS011;8431;52.458;9.998;2023-02-04T05:33:06;1.50;;;1.40;;
16634;SDS011;8431;52.458;9.998;2023-02-04T05:35:35;1.98;;;1.33;;
16634;SDS011;8431;52.458;9.998;2023-02-04T05:38:02;1.10;;;1.10;;
16634;SDS011;8431;52.458;9.998;2023-02-04T05:40:29;1.35;;;1.27;;
16634;SDS011;8431;52.458;9.998;2023-02-04T05:42:56;3.58;;;1.50;;
16634;SDS011;8431;52.458;9.998;2023-02-04T05:45:23;1.73;;;1.45;;
16634;SDS011;8431;52.458;9.998;2023-02-04T05:47:50;2.20;;;1.35;;
16634;SDS011;8431;52.458;9.998;2023-02-04T05:50:17;1.90;;;1.80;;
16634;SDS011;8431;52.458;9.998;2023-02-04T05:52:45;2.60;;;1.40;;
16634;SDS011;8431;52.458;9.998;2023-02-04T05:55:12;1.40;;;1.30;;
16634;SDS011;8431;52.458;9.998;2023-02-04T05:57:39;1.40;;;1.30;;
16634;SDS011;8431;52.458;9.998;2023-02-04T06:00:07;1.58;;;1.48;;
16634;SDS011;8431;52.458;9.998;2023-02-04T06:02:36;1.40;;;1.30;;
16634;SDS011;8431;52.458;9.998;2023-02-04T06:05:03;1.20;;;1.10;;
16634;SDS011;8431;52.458;9.998;2023-02-04T06:07:31;1.25;;;1.15;;
16634;SDS011;8431;52.458;9.998;2023-02-04T06:09:59;2.40;;;1.48;;
16634;SDS011;8431;52.458;9.998;2023-02-04T06:12:26;1.50;;;1.40;;
16634;SDS011;8431;52.458;9.998;2023-02-04T06:14:53;1.63;;;1.52;;
16634;SDS011;8431;52.458;9.998;2023-02-04T06:17:20;2.75;;;1.48;;
16634;SDS011;8431;52.458;9.998;2023-02-04T06:19:47;3.47;;;1.45;;
16634;SDS011;8431;52.458;9.998;2023-02-04T06:22:14;1.33;;;1.23;;
16634;SDS011;8431;52.458;9.998;2023-02-04T06:24:41;2.15;;;1.33;;
16634;SDS011;8431;52.458;9.998;2023-02-04T06:27:09;1.77;;;1.10;;
16634;SDS011;8431;52.458;9.998;2023-02-04T06:29:36;1.05;;;0.95;;
16634;SDS011;8431;52.458;9.998;2023-02-04T06:32:04;1.63;;;1.50;;
16634;SDS011;8431;52.458;9.998;2023-02-04T06:34:31;1.65;;;1.40;;
16634;SDS011;8431;52.458;9.998;2023-02-04T06:36:58;1.42;;;1.33;;
16634;SDS011;8431;52.458;9.998;2023-02-04T06:39:25;1.45;;;1.42;;
16634;SDS011;8431;52.458;9.998;2023-02-04T06:41:52;2.33;;;1.48;;
16634;SDS011;8431;52.458;9.998;2023-02-04T06:44:20;2.13;;;1.98;;
16634;SDS011;8431;52.458;9.998;2023-02-04T06:46:47;3.42;;;1.90;;
16634;SDS011;8431;52.458;9.998;2023-02-04T06:49:14;2.97;;;1.52;;
16634;SDS011;8431;52.458;9.998;2023-02-04T06:51:41;1.58;;;1.48;;
16634;SDS011;8431;52.458;9.998;2023-02-04T06:54:08;2.70;;;1.90;;
16634;SDS011;8431;52.458;9.998;2023-02-04T06:56:35;2.00;;;1.88;;
16634;SDS011;8431;52.458;9.998;2023-02-04T06:59:02;1.58;;;1.48;;
16634;SDS011;8431;52.458;9.998;2023-02-04T07:01:30;4.57;;;4.07;;
16634;SDS011;8431;52.458;9.998;2023-02-04T07:03:57;5.30;;;4.68;;
16634;SDS011;8431;52.458;9.998;2023-02-04T07:06:24;5.03;;;3.95;;
16634;SDS011;8431;52.458;9.998;2023-02-04T07:08:51;6.10;;;5.40;;
16634;SDS011;8431;52.458;9.998;2023-02-04T07:11:18;6.07;;;4.40;;
16634;SDS011;8431;52.458;9.998;2023-02-04T07:13:45;4.90;;;4.50;;
16634;SDS011;8431;52.458;9.998;2023-02-04T07:16:14;4.50;;;4.10;;
16634;SDS011;8431;52.458;9.998;2023-02-04T07:18:42;2.90;;;2.50;;
16634;SDS011;8431;52.458;9.998;2023-02-04T07:21:09;2.08;;;1.95;;
16634;SDS011;8431;52.458;9.998;2023-02-04T07:23:36;2.22;;;2.05;;
16634;SDS011;8431;52.458;9.998;2023-02-04T07:26:03;4.63;;;1.88;;
16634;SDS011;8431;52.458;9.998;2023-02-04T07:28:30;2.88;;;1.90;;
16634;SDS011;8431;52.458;9.998;2023-02-04T07:33:27;2.97;;;2.03;;
16634;SDS011;8431;52.458;9.998;2023-02-04T07:35:55;2.58;;;2.20;;
16634;SDS011;8431;52.458;9.998;2023-02-04T07:38:22;3.53;;;2.22;;
16634;SDS011;8431;52.458;9.998;2023-02-04T07:40:49;2.47;;;2.30;;
16634;SDS011;8431;52.458;9.998;2023-02-04T07:43:16;2.38;;;2.22;;
16634;SDS011;8431;52.458;9.998;2023-02-04T07:45:43;2.55;;;2.28;;
16634;SDS011;8431;52.458;9.998;2023-02-04T07:48:10;3.13;;;2.30;;
16634;SDS011;8431;52.458;9.998;2023-02-04T07:50:37;3.70;;;2.25;;
16634;SDS011;8431;52.458;9.998;2023-02-04T07:53:06;6.45;;;2.65;;
16634;SDS011;8431;52.458;9.998;2023-02-04T07:55:33;2.38;;;2.13;;
16634;SDS011;8431;52.458;9.998;2023-02-04T07:58:00;2.20;;;2.10;;
16634;SDS011;8431;52.458;9.998;2023-02-04T08:00:27;2.47;;;2.08;;
16634;SDS011;8431;52.458;9.998;2023-02-04T08:02:54;2.30;;;2.10;;
16634;SDS011;8431;52.458;9.998;2023-02-04T08:05:21;2.17;;;2.08;;
16634;SDS011;8431;52.458;9.998;2023-02-04T08:07:49;3.15;;;2.53;;
16634;SDS011;8431;52.458;9.998;2023-02-04T08:10:18;2.63;;;2.42;;
16634;SDS011;8431;52.458;9.998;2023-02-04T08:12:45;4.57;;;2.70;;
16634;SDS011;8431;52.458;9.998;2023-02-04T08:15:12;2.42;;;2.22;;
16634;SDS011;8431;52.458;9.998;2023-02-04T08:17:39;2.75;;;2.53;;
16634;SDS011;8431;52.458;9.998;2023-02-04T08:20:07;3.15;;;2.38;;
16634;SDS011;8431;52.458;9.998;2023-02-04T08:22:34;3.17;;;2.88;;
16634;SDS011;8431;52.458;9.998;2023-02-04T08:25:01;3.28;;;2.58;;
16634;SDS011;8431;52.458;9.998;2023-02-04T08:27:30;4.00;;;3.13;;
16634;SDS011;8431;52.458;9.998;2023-02-04T08:29:57;3.50;;;3.20;;
16634;SDS011;8431;52.458;9.998;2023-02-04T08:32:24;7.53;;;4.10;;
16634;SDS011;8431;52.458;9.998;2023-02-04T08:34:53;5.13;;;3.70;;
16634;SDS011;8431;52.458;9.998;2023-02-04T08:37:20;5.47;;;3.72;;
16634;SDS011;8431;52.458;9.998;2023-02-04T08:39:47;4.25;;;3.08;;
16634;SDS011;8431;52.458;9.998;2023-02-04T08:42:14;3.63;;;3.15;;
16634;SDS011;8431;52.458;9.998;2023-02-04T08:44:43;3.72;;;3.05;;
16634;SDS011;8431;52.458;9.998;2023-02-04T08:47:10;3.33;;;3.03;;
16634;SDS011;8431;52.458;9.998;2023-02-04T08:49:37;4.15;;;2.90;;
16634;SDS011;8431;52.458;9.998;2023-02-04T08:54:35;4.45;;;2.85;;
16634;SDS011;8431;52.458;9.998;2023-02-04T08:57:02;4.72;;;2.90;;
16634;SDS011;8431;52.458;9.998;2023-02-04T08:59:29;3.70;;;3.08;;
16634;SDS011;8431;52.458;9.998;2023-02-04T09:01:57;3.13;;;2.83;;
16634;SDS011;8431;52.458;9.998;2023-02-04T09:04:24;3.55;;;2.63;;
16634;SDS011;8431;52.458;9.998;2023-02-04T09:06:52;3.72;;;3.33;;
16634;SDS011;8431;52.458;9.998;2023-02-04T09:09:20;5.35;;;3.20;;
16634;SDS011;8431;52.458;9.998;2023-02-04T09:11:53;4.53;;;3.28;;
16634;SDS011;8431;52.458;9.998;2023-02-04T09:14:20;4.20;;;3.05;;
16634;SDS011;8431;52.458;9.998;2023-02-04T09:16:47;4.03;;;3.50;;
16634;SDS011;8431;52.458;9.998;2023-02-04T09:19:16;3.95;;;3.55;;
16634;SDS011;8431;52.458;9.998;2023-02-04T09:21:48;3.45;;;3.15;;
16634;SDS011;8431;52.458;9.998;2023-02-04T09:24:15;3.28;;;2.63;;
16634;SDS011;8431;52.458;9.998;2023-02-04T09:26:43;2.58;;;2.25;;
16634;SDS011;8431;52.458;9.998;2023-02-04T09:29:10;2.50;;;2.30;;
16634;SDS011;8431;52.458;9.998;2023-02-04T09:31:44;3.63;;;2.30;;
16634;SDS011;8431;52.458;9.998;2023-02-04T09:34:11;2.63;;;2.33;;
16634;SDS011;8431;52.458;9.998;2023-02-04T09:36:39;2.42;;;2.30;;
16634;SDS011;8431;52.458;9.998;2023-02-04T09:39:09;2.80;;;2.60;;
16634;SDS011;8431;52.458;9.998;2023-02-04T09:41:37;2.38;;;2.17;;
16634;SDS011;8431;52.458;9.998;2023-02-04T09:44:07;2.33;;;1.85;;
16634;SDS011;8431;52.458;9.998;2023-02-04T09:46:38;2.80;;;1.70;;
16634;SDS011;8431;52.458;9.998;2023-02-04T09:49:12;2.15;;;1.77;;
16634;SDS011;8431;52.458;9.998;2023-02-04T09:51:41;1.25;;;1.23;;
16634;SDS011;8431;52.458;9.998;2023-02-04T09:54:10;1.92;;;1.48;;
16634;SDS011;8431;52.458;9.998;2023-02-04T09:56:41;1.40;;;1.30;;
16634;SDS011;8431;52.458;9.998;2023-02-04T09:59:11;1.15;;;1.00;;
16634;SDS011;8431;52.458;9.998;2023-02-04T10:04:28;1.67;;;1.33;;
16634;SDS011;8431;52.458;9.998;2023-02-04T10:06:57;1.60;;;1.50;;
16634;SDS011;8431;52.458;9.998;2023-02-04T10:09:26;1.40;;;1.27;;
16634;SDS011;8431;52.458;9.998;2023-02-04T10:12:07;1.33;;;1.25;;
16634;SDS011;8431;52.458;9.998;2023-02-04T10:14:34;1.67;;;1.52;;
16634;SDS011;8431;52.458;9.998;2023-02-04T10:17:01;1.50;;;1.40;;
16634;SDS011;8431;52.458;9.998;2023-02-04T10:19:28;1.23;;;1.13;;
16634;SDS011;8431;52.458;9.998;2023-02-04T10:21:57;1.05;;;0.95;;
16634;SDS011;8431;52.458;9.998;2023-02-04T10:24:25;1.80;;;1.25;;
16634;SDS011;8431;52.458;9.998;2023-02-04T10:27:06;1.17;;;1.15;;
16634;SDS011;8431;52.458;9.998;2023-02-04T10:29:35;1.63;;;1.20;;
16634;SDS011;8431;52.458;9.998;2023-02-04T10:32:02;1.30;;;1.02;;
16634;SDS011;8431;52.458;9.998;2023-02-04T10:37:13;2.05;;;1.20;;
16634;SDS011;8431;52.458;9.998;2023-02-04T10:39:44;1.63;;;1.15;;
16634;SDS011;8431;52.458;9.998;2023-02-04T10:42:17;1.05;;;0.95;;
16634;SDS011;8431;52.458;9.998;2023-02-04T10:44:55;2.60;;;1.00;;
16634;SDS011;8431;52.458;9.998;2023-02-04T10:47:22;1.52;;;1.30;;
16634;SDS011;8431;52.458;9.998;2023-02-04T10:49:51;1.17;;;1.10;;
16634;SDS011;8431;52.458;9.998;2023-02-04T10:52:21;1.33;;;1.00;;
16634;SDS011;8431;52.458;9.998;2023-02-04T10:54:51;1.95;;;1.15;;
16634;SDS011;8431;52.458;9.998;2023-02-04T10:57:17;1.33;;;1.00;;
16634;SDS011;8431;52.458;9.998;2023-02-04T10:59:47;1.58;;;1.42;;
16634;SDS011;8431;52.458;9.998;2023-02-04T11:04:59;1.58;;;1.42;;
16634;SDS011;8431;52.458;9.998;2023-02-04T11:07:32;1.63;;;1.50;;
16634;SDS011;8431;52.458;9.998;2023-02-04T11:09:58;1.00;;;1.00;;
16634;SDS011;8431;52.458;9.998;2023-02-04T11:12:35;4.00;;;1.10;;
16634;SDS011;8431;52.458;9.998;2023-02-04T11:15:04;2.47;;;1.00;;
16634;SDS011;8431;52.458;9.998;2023-02-04T11:17:32;1.67;;;1.30;;
16634;SDS011;8431;52.458;9.998;2023-02-04T11:20:12;3.38;;;1.27;;
16634;SDS011;8431;52.458;9.998;2023-02-04T11:22:43;1.35;;;1.20;;
16634;SDS011;8431;52.458;9.998;2023-02-04T11:25:32;1.63;;;1.50;;
16634;SDS011;8431;52.458;9.998;2023-02-04T11:28:12;2.50;;;1.17;;
16634;SDS011;8431;52.458;9.998;2023-02-04T11:30:41;1.50;;;1.40;;
16634;SDS011;8431;52.458;9.998;2023-02-04T11:33:21;1.42;;;1.30;;
16634;SDS011;8431;52.458;9.998;2023-02-04T11:35:56;1.40;;;1.17;;
16634;SDS011;8431;52.458;9.998;2023-02-04T11:38:28;2.80;;;1.20;;
16634;SDS011;8431;52.458;9.998;2023-02-04T11:43:28;2.08;;;1.35;;
16634;SDS011;8431;52.458;9.998;2023-02-04T11:46:14;1.27;;;0.95;;
16634;SDS011;8431;52.458;9.998;2023-02-04T11:48:43;2.28;;;0.82;;
16634;SDS011;8431;52.458;9.998;2023-02-04T11:51:11;1.45;;;1.33;;
16634;SDS011;8431;52.458;9.998;2023-02-04T11:53:41;5.38;;;1.30;;
16634;SDS011;8431;52.458;9.998;2023-02-04T11:56:14;2.58;;;1.45;;
16634;SDS011;8431;52.458;9.998;2023-02-04T11:58:42;1.17;;;1.00;;
16634;SDS011;8431;52.458;9.998;2023-02-04T12:01:21;1.33;;;1.02;;
16634;SDS011;8431;52.458;9.998;2023-02-04T12:03:50;1.73;;;1.30;;
16634;SDS011;8431;52.458;9.998;2023-02-04T12:06:26;2.55;;;1.73;;
16634;SDS011;8431;52.458;9.998;2023-02-04T12:11:54;2.17;;;1.20;;
16634;SDS011;8431;52.458;9.998;2023-02-04T12:14:27;1.40;;;1.30;;
16634;SDS011;8431;52.458;9.998;2023-02-04T12:16:58;1.70;;;1.30;;
16634;SDS011;8431;52.458;9.998;2023-02-04T12:19:28;1.85;;;1.45;;
16634;SDS011;8431;52.458;9.998;2023-02-04T12:22:09;1.40;;;1.20;;
16634;SDS011;8431;52.458;9.998;2023-02-04T12:24:38;1.33;;;1.23;;
16634;SDS011;8431;52.458;9.998;2023-02-04T12:27:05;2.05;;;1.05;;
16634;SDS011;8431;52.458;9.998;2023-02-04T12:29:32;1.10;;;1.10;;
16634;SDS011;8431;52.458;9.998;2023-02-04T12:32:01;3.47;;;1.40;;
16634;SDS011;8431;52.458;9.998;2023-02-04T12:34:30;1.13;;;1.02;;
16634;SDS011;8431;52.458;9.998;2023-02-04T12:36:57;1.05;;;1.05;;
16634;SDS011;8431;52.458;9.998;2023-02-04T12:39:25;1.40;;;1.25;;
16634;SDS011;8431;52.458;9.998;2023-02-04T12:41:54;1.38;;;1.20;;
16634;SDS011;8431;52.458;9.998;2023-02-04T12:44:21;1.23;;;1.17;;
16634;SDS011;8431;52.458;9.998;2023-02-04T12:46:48;1.25;;;1.15;;
16634;SDS011;8431;52.458;9.998;2023-02-04T12:49:15;3.03;;;1.30;;
16634;SDS011;8431;52.458;9.998;2023-02-04T12:51:42;1.10;;;0.98;;
16634;SDS011;8431;52.458;9.998;2023-02-04T12:54:09;2.63;;;1.60;;
16634;SDS011;8431;52.458;9.998;2023-02-04T12:56:36;1.15;;;0.98;;
16634;SDS011;8431;52.458;9.998;2023-02-04T12:59:04;3.05;;;1.05;;
16634;SDS011;8431;52.458;9.998;2023-02-04T13:01:31;0.88;;;0.88;;
16634;SDS011;8431;52.458;9.998;2023-02-04T13:03:58;1.30;;;1.00;;
16634;SDS011;8431;52.458;9.998;2023-02-04T13:06:25;1.17;;;1.08;;
16634;SDS011;8431;52.458;9.998;2023-02-04T13:08:52;1.05;;;0.95;;
16634;SDS011;8431;52.458;9.998;2023-02-04T13:11:19;2.05;;;1.13;;
16634;SDS011;8431;52.458;9.998;2023-02-04T13:13:47;2.05;;;1.20;;
16634;SDS011;8431;52.458;9.998;2023-02-04T13:16:15;1.85;;;1.23;;
16634;SDS011;8431;52.458;9.998;2023-02-04T13:18:43;0.82;;;0.82;;
16634;SDS011;8431;52.458;9.998;2023-02-04T13:21:10;0.88;;;0.88;;
16634;SDS011;8431;52.458;9.998;2023-02-04T13:23:37;1.27;;;0.90;;
16634;SDS011;8431;52.458;9.998;2023-02-04T13:26:04;2.67;;;1.25;;
16634;SDS011;8431;52.458;9.998;2023-02-04T13:28:32;1.80;;;1.15;;
16634;SDS011;8431;52.458;9.998;2023-02-04T13:30:59;1.85;;;0.88;;
16634;SDS011;8431;52.458;9.998;2023-02-04T13:33:28;1.98;;;1.08;;
16634;SDS011;8431;52.458;9.998;2023-02-04T13:35:55;1.33;;;1.23;;
16634;SDS011;8431;52.458;9.998;2023-02-04T13:38:23;1.17;;;0.93;;
16634;SDS011;8431;52.458;9.998;2023-02-04T13:40:50;1.33;;;1.15;;
16634;SDS011;8431;52.458;9.998;2023-02-04T13:43:19;1.48;;;1.10;;
16634;SDS011;8431;52.458;9.998;2023-02-04T13:45:47;1.17;;;1.17;;
16634;SDS011;8431;52.458;9.998;2023-02-04T13:50:48;1.73;;;1.10;;
16634;SDS011;8431;52.458;9.998;2023-02-04T13:53:15;1.65;;;1.30;;
16634;SDS011;8431;52.458;9.998;2023-02-04T13:55:42;1.92;;;1.42;;
16634;SDS011;8431;52.458;9.998;2023-02-04T13:58:10;1.67;;;1.17;;
16634;SDS011;8431;52.458;9.998;2023-02-04T14:00:37;1.40;;;1.30;;
16634;SDS011;8431;52.458;9.998;2023-02-04T14:03:04;1.40;;;1.40;;
16634;SDS011;8431;52.458;9.998;2023-02-04T14:05:31;1.88;;;1.42;;
16634;SDS011;8431;52.458;9.998;2023-02-04T14:07:59;4.15;;;1.73;;
16634;SDS011;8431;52.458;9.998;2023-02-04T14:10:26;0.98;;;0.98;;
16634;SDS011;8431;52.458;9.998;2023-02-04T14:12:53;1.33;;;1.05;;
16634;SDS011;8431;52.458;9.998;2023-02-04T14:15:20;1.20;;;1.20;;
16634;SDS011;8431;52.458;9.998;2023-02-04T14:17:47;1.35;;;1.25;;
16634;SDS011;8431;52.458;9.998;2023-02-04T14:20:15;1.20;;;1.17;;
16634;SDS011;8431;52.458;9.998;2023-02-04T14:22:42;1.33;;;1.23;;
16634;SDS011;8431;52.458;9.998;2023-02-04T14:25:10;1.88;;;1.30;;
16634;SDS011;8431;52.458;9.998;2023-02-04T14:27:37;1.58;;;1.48;;
16634;SDS011;8431;52.458;9.998;2023-02-04T14:30:07;1.50;;;1.17;;
16634;SDS011;8431;52.458;9.998;2023-02-04T14:32:40;0.98;;;0.90;;
16634;SDS011;8431;52.458;9.998;2023-02-04T14:35:07;2.40;;;1.27;;
16634;SDS011;8431;52.458;9.998;2023-02-04T14:37:34;1.23;;;1.13;;
16634;SDS011;8431;52.458;9.998;2023-02-04T14:40:01;1.35;;;1.20;;
16634;SDS011;8431;52.458;9.998;2023-02-04T14:42:30;1.33;;;1.10;;
16634;SDS011;8431;52.458;9.998;2023-02-04T14:44:57;1.30;;;1.20;;
16634;SDS011;8431;52.458;9.998;2023-02-04T14:47:24;1.20;;;1.10;;
16634;SDS011;8431;52.458;9.998;2023-02-04T14:49:52;1.23;;;1.13;;
16634;SDS011;8431;52.458;9.998;2023-02-04T14:52:18;1.63;;;1.48;;
16634;SDS011;8431;52.458;9.998;2023-02-04T14:54:45;2.92;;;1.30;;
16634;SDS011;8431;52.458;9.998;2023-02-04T14:57:12;1.40;;;1.30;;
16634;SDS011;8431;52.458;9.998;2023-02-04T14:59:41;1.33;;;1.23;;
16634;SDS011;8431;52.458;9.998;2023-02-04T15:02:08;1.17;;;1.00;;
16634;SDS011;8431;52.458;9.998;2023-02-04T15:04:36;1.58;;;1.20;;
16634;SDS011;8431;52.458;9.998;2023-02-04T15:07:03;2.00;;;1.27;;
16634;SDS011;8431;52.458;9.998;2023-02-04T15:09:30;0.90;;;0.90;;
16634;SDS011;8431;52.458;9.998;2023-02-04T15:11:58;1.65;;;1.35;;
16634;SDS011;8431;52.458;9.998;2023-02-04T15:14:25;1.67;;;1.08;;
16634;SDS011;8431;52.458;9.998;2023-02-04T15:16:53;1.13;;;1.00;;
16634;SDS011;8431;52.458;9.998;2023-02-04T15:19:20;2.33;;;1.20;;
16634;SDS011;8431;52.458;9.998;2023-02-04T15:21:49;2.63;;;1.08;;
16634;SDS011;8431;52.458;9.998;2023-02-04T15:24:18;1.75;;;1.30;;
16634;SDS011;8431;52.458;9.998;2023-02-04T15:26:46;3.42;;;1.10;;
16634;SDS011;8431;52.458;9.998;2023-02-04T15:29:16;5.15;;;1.30;;
16634;SDS011;8431;52.458;9.998;2023-02-04T15:31:43;1.17;;;1.10;;